createdAt,value
2018-08-24T00:01:36.381Z,23.07
2018-08-24T00:02:36.303Z,22.93
2018-08-24T00:04:29.103Z,22.89
2018-08-24T00:05:29.029Z,22.89
2018-08-24T00:07:21.813Z,22.84
2018-08-24T00:08:21.733Z,22.74
2018-08-24T00:10:14.560Z,22.74
2018-08-24T00:11:14.476Z,22.67
2018-08-24T00:13:07.252Z,22.56
2018-08-24T00:14:07.197Z,22.49
2018-08-24T00:15:59.993Z,22.48
2018-08-24T00:16:59.925Z,22.39
2018-08-24T00:18:52.700Z,22.41
2018-08-24T00:19:52.625Z,22.44
2018-08-24T00:21:45.420Z,22.27
2018-08-24T00:22:45.353Z,22.27
2018-08-24T00:24:38.146Z,22.24
2018-08-24T00:25:38.083Z,22.24
2018-08-24T00:27:30.861Z,22.24
2018-08-24T00:28:30.797Z,22.23
2018-08-24T00:30:23.593Z,22.15
2018-08-24T00:31:23.521Z,22.14
2018-08-24T00:33:16.294Z,21.94
2018-08-24T00:34:16.240Z,21.98
2018-08-24T00:36:09.043Z,21.98
2018-08-24T00:37:08.949Z,21.94
2018-08-24T00:39:01.748Z,21.94
2018-08-24T00:40:01.675Z,21.99
2018-08-24T00:41:54.472Z,22.08
2018-08-24T00:42:54.415Z,22.02
2018-08-24T00:44:47.229Z,22.11
2018-08-24T00:45:47.117Z,22.01
2018-08-24T00:47:39.897Z,22.04
2018-08-24T00:48:39.838Z,22.02
2018-08-24T00:50:32.654Z,21.98
2018-08-24T00:51:32.578Z,21.89
2018-08-24T00:53:25.369Z,21.79
2018-08-24T00:54:25.308Z,21.73
2018-08-24T00:56:18.080Z,21.71
2018-08-24T00:57:18.013Z,21.74
2018-08-24T00:59:10.807Z,21.63
2018-08-24T01:00:10.738Z,21.59
2018-08-24T01:02:03.518Z,21.66
2018-08-24T01:03:03.461Z,21.64
2018-08-24T01:04:56.248Z,21.61
2018-08-24T01:05:56.179Z,21.56
2018-08-24T01:07:48.946Z,21.48
2018-08-24T01:08:48.880Z,21.51
2018-08-24T01:10:41.694Z,21.49
2018-08-24T01:11:41.613Z,21.46
2018-08-24T01:13:34.391Z,21.48
2018-08-24T01:14:34.326Z,21.45
2018-08-24T01:16:27.127Z,21.45
2018-08-24T01:17:27.047Z,21.42
2018-08-24T01:19:19.820Z,21.37
2018-08-24T01:20:19.757Z,21.31
2018-08-24T01:22:12.551Z,21.31
2018-08-24T01:23:12.475Z,21.28
2018-08-24T01:25:05.278Z,21.28
2018-08-24T01:26:05.221Z,21.09
2018-08-24T01:27:57.999Z,21.05
2018-08-24T01:28:57.922Z,21.01
2018-08-24T01:30:50.718Z,20.85
2018-08-24T01:31:50.659Z,20.85
2018-08-24T01:33:43.445Z,20.97
2018-08-24T01:34:43.379Z,20.91
2018-08-24T01:36:36.161Z,20.90
2018-08-24T01:37:36.092Z,20.94
2018-08-24T01:39:28.911Z,20.96
2018-08-24T01:40:28.860Z,20.91
2018-08-24T01:42:21.623Z,20.96
2018-08-24T01:43:21.556Z,20.98
2018-08-24T01:45:14.355Z,20.91
2018-08-24T01:46:14.263Z,20.93
2018-08-24T01:48:07.033Z,20.88
2018-08-24T01:49:06.978Z,20.82
2018-08-24T01:50:59.760Z,20.73
2018-08-24T01:51:59.678Z,20.72
2018-08-24T01:53:52.470Z,20.66
2018-08-24T01:54:52.412Z,20.66
2018-08-24T01:56:45.217Z,20.66
2018-08-24T01:57:45.128Z,20.68
2018-08-24T01:59:37.905Z,20.61
2018-08-24T02:00:37.861Z,20.54
2018-08-24T02:02:30.640Z,20.48
2018-08-24T02:03:30.568Z,20.51
2018-08-24T02:05:23.351Z,20.56
2018-08-24T02:06:23.278Z,20.50
2018-08-24T02:08:16.383Z,20.56
2018-08-24T02:09:16.332Z,20.42
2018-08-24T02:11:09.170Z,20.50
2018-08-24T02:12:09.061Z,20.50
2018-08-24T02:14:01.835Z,20.53
2018-08-24T02:15:01.774Z,20.46
2018-08-24T02:16:54.586Z,20.48
2018-08-24T02:17:54.506Z,20.34
2018-08-24T02:19:47.277Z,20.35
2018-08-24T02:20:47.213Z,20.37
2018-08-24T02:22:40.010Z,20.44
2018-08-24T02:23:39.936Z,20.38
2018-08-24T02:25:32.730Z,20.35
2018-08-24T02:26:32.641Z,20.40
2018-08-24T02:28:25.440Z,20.37
2018-08-24T02:29:25.371Z,20.33
2018-08-24T02:31:18.206Z,20.48
2018-08-24T02:32:18.072Z,20.51
2018-08-24T02:34:10.856Z,20.57
2018-08-24T02:35:10.788Z,20.58
2018-08-24T02:37:03.564Z,20.71
2018-08-24T02:38:03.491Z,20.60
2018-08-24T02:39:56.321Z,20.68
2018-08-24T02:40:56.254Z,20.66
2018-08-24T02:42:49.057Z,20.63
2018-08-24T02:43:49.010Z,20.68
2018-08-24T02:45:41.786Z,20.69
2018-08-24T02:46:41.675Z,20.66
2018-08-24T02:48:34.450Z,20.64
2018-08-24T02:49:34.392Z,20.63
2018-08-24T02:51:27.168Z,20.66
2018-08-24T02:52:27.097Z,20.68
2018-08-24T02:54:19.919Z,20.73
2018-08-24T02:55:19.856Z,20.76
2018-08-24T02:57:12.650Z,20.75
2018-08-24T02:58:12.564Z,20.72
2018-08-24T03:00:05.351Z,20.79
2018-08-24T03:01:05.310Z,20.69
2018-08-24T03:02:58.074Z,20.79
2018-08-24T03:03:57.999Z,20.81
2018-08-24T03:05:50.786Z,20.81
2018-08-24T03:06:50.723Z,20.85
2018-08-24T03:08:43.483Z,20.81
2018-08-24T03:09:43.419Z,20.82
2018-08-24T03:11:36.232Z,20.83
2018-08-24T03:12:36.145Z,20.83
2018-08-24T03:14:28.932Z,20.83
2018-08-24T03:15:28.852Z,20.73
2018-08-24T03:17:21.647Z,20.83
2018-08-24T03:18:21.574Z,20.87
2018-08-24T03:20:14.363Z,20.87
2018-08-24T03:21:14.312Z,20.83
2018-08-24T03:23:07.101Z,20.79
2018-08-24T03:24:07.025Z,20.82
2018-08-24T03:25:59.836Z,20.83
2018-08-24T03:26:59.764Z,20.83
2018-08-24T03:28:52.526Z,20.83
2018-08-24T03:29:52.465Z,20.81
2018-08-24T03:31:45.266Z,20.79
2018-08-24T03:32:45.185Z,20.82
2018-08-24T03:34:37.980Z,20.83
2018-08-24T03:35:37.938Z,20.83
2018-08-24T03:37:30.702Z,20.82
2018-08-24T03:38:30.631Z,20.90
2018-08-24T03:40:23.423Z,21.01
2018-08-24T03:41:23.320Z,20.98
2018-08-24T03:43:16.137Z,20.97
2018-08-24T03:44:16.057Z,21.06
2018-08-24T03:46:08.831Z,21.21
2018-08-24T03:47:08.778Z,21.27
2018-08-24T03:49:01.536Z,21.28
2018-08-24T03:50:01.472Z,21.37
2018-08-24T03:51:54.254Z,21.48
2018-08-24T03:52:54.248Z,21.45
2018-08-24T03:54:46.965Z,21.53
2018-08-24T03:55:46.896Z,21.59
2018-08-24T03:57:39.708Z,21.43
2018-08-24T03:58:39.624Z,21.53
2018-08-24T04:00:32.405Z,21.46
2018-08-24T04:01:32.344Z,21.59
2018-08-24T04:03:25.126Z,21.64
2018-08-24T04:04:25.060Z,21.61
2018-08-24T04:06:17.911Z,21.55
2018-08-24T04:07:17.832Z,21.66
2018-08-24T04:09:10.594Z,21.73
2018-08-24T04:10:10.548Z,21.74
2018-08-24T04:12:03.359Z,21.75
2018-08-24T04:13:03.278Z,21.83
2018-08-24T04:14:56.240Z,21.94
2018-08-24T04:15:56.187Z,21.94
2018-08-24T04:17:49.013Z,21.93
2018-08-24T04:18:48.964Z,21.89
2018-08-24T04:20:41.740Z,21.93
2018-08-24T04:21:41.687Z,21.83
2018-08-24T04:23:34.452Z,21.86
2018-08-24T04:24:34.379Z,21.90
2018-08-24T04:26:27.179Z,21.98
2018-08-24T04:27:27.103Z,22.11
2018-08-24T04:29:19.890Z,22.19
2018-08-24T04:30:19.859Z,22.17
2018-08-24T04:32:12.606Z,22.17
2018-08-24T04:33:12.522Z,22.20
2018-08-24T04:35:05.406Z,22.19
2018-08-24T04:36:05.253Z,22.26
2018-08-24T04:37:58.048Z,22.12
2018-08-24T04:38:57.951Z,22.09
2018-08-24T04:40:50.746Z,22.11
2018-08-24T04:41:50.686Z,22.14
2018-08-24T04:43:43.489Z,21.98
2018-08-24T04:44:43.461Z,21.96
2018-08-24T04:46:36.226Z,21.93
2018-08-24T04:47:36.154Z,21.94
2018-08-24T04:49:28.930Z,21.74
2018-08-24T04:50:28.862Z,21.90
2018-08-24T04:52:21.669Z,21.79
2018-08-24T04:53:21.583Z,21.86
2018-08-24T04:55:14.366Z,21.73
2018-08-24T04:56:14.302Z,21.68
2018-08-24T04:58:07.162Z,21.73
2018-08-24T04:59:07.055Z,21.67
2018-08-24T05:00:59.874Z,21.70
2018-08-24T05:01:59.803Z,21.70
2018-08-24T05:03:52.803Z,21.70
2018-08-24T05:04:52.725Z,21.81
2018-08-24T05:06:45.526Z,21.70
2018-08-24T05:07:45.460Z,21.77
2018-08-24T05:09:38.257Z,21.77
2018-08-24T05:10:38.222Z,21.89
2018-08-24T05:12:30.989Z,22.06
2018-08-24T05:13:30.907Z,22.14
2018-08-24T05:15:23.753Z,22.06
2018-08-24T05:16:23.677Z,22.04
2018-08-24T05:18:16.511Z,22.15
2018-08-24T05:19:16.408Z,22.24
2018-08-24T05:21:09.204Z,22.29
2018-08-24T05:22:09.137Z,22.26
2018-08-24T05:24:01.961Z,22.33
2018-08-24T05:25:01.848Z,22.41
2018-08-24T05:26:54.612Z,22.48
2018-08-24T05:27:54.574Z,22.39
2018-08-24T05:29:47.364Z,22.42
2018-08-24T05:30:47.270Z,22.44
2018-08-24T05:32:40.072Z,22.51
2018-08-24T05:33:39.984Z,22.48
2018-08-24T05:35:32.779Z,22.41
2018-08-24T05:36:32.716Z,22.54
2018-08-24T05:38:25.509Z,22.54
2018-08-24T05:39:25.439Z,22.44
2018-08-24T05:41:18.260Z,22.46
2018-08-24T05:42:18.160Z,22.46
2018-08-24T05:44:10.952Z,22.39
2018-08-24T05:45:10.886Z,22.46
2018-08-24T05:47:03.703Z,22.51
2018-08-24T05:48:03.635Z,22.52
2018-08-24T05:49:56.444Z,22.63
2018-08-24T05:50:56.358Z,22.64
2018-08-24T05:52:49.141Z,22.82
2018-08-24T05:53:49.070Z,22.97
2018-08-24T05:55:41.867Z,23.23
2018-08-24T05:56:41.792Z,23.31
2018-08-24T05:58:34.607Z,23.32
2018-08-24T05:59:34.521Z,23.53
2018-08-24T06:01:27.312Z,23.63
2018-08-24T06:02:27.359Z,23.82
2018-08-24T06:04:20.046Z,24.02
2018-08-24T06:05:19.964Z,24.14
2018-08-24T06:07:12.735Z,24.15
2018-08-24T06:08:12.676Z,24.15
2018-08-24T06:10:05.465Z,24.23
2018-08-24T06:11:05.393Z,24.04
2018-08-24T06:12:58.191Z,24.24
2018-08-24T06:13:58.138Z,24.19
2018-08-24T06:15:50.958Z,24.36
2018-08-24T06:16:50.930Z,24.37
2018-08-24T06:18:43.652Z,24.45
2018-08-24T06:19:43.576Z,24.67
2018-08-24T06:21:36.379Z,25.39
2018-08-24T06:22:36.311Z,26.00
2018-08-24T06:24:29.186Z,26.98
2018-08-24T06:25:29.069Z,27.11
2018-08-24T06:27:21.877Z,27.55
2018-08-24T06:28:21.831Z,27.52
2018-08-24T06:30:14.631Z,26.86
2018-08-24T06:31:14.561Z,26.47
2018-08-24T06:33:07.350Z,26.00
2018-08-24T06:34:07.273Z,26.01
2018-08-24T06:36:00.103Z,26.76
2018-08-24T06:37:00.154Z,27.05
2018-08-24T06:38:52.812Z,27.23
2018-08-24T06:39:53.051Z,27.31
2018-08-24T06:41:45.601Z,27.98
2018-08-24T06:42:45.520Z,28.03
2018-08-24T06:44:38.288Z,28.24
2018-08-24T06:45:38.217Z,28.20
2018-08-24T06:47:31.057Z,27.72
2018-08-24T06:48:30.932Z,27.61
2018-08-24T06:50:23.763Z,27.25
2018-08-24T06:51:23.689Z,27.23
2018-08-24T06:53:16.621Z,27.20
2018-08-24T06:54:16.422Z,27.15
2018-08-24T06:56:09.224Z,26.60
2018-08-24T06:57:09.162Z,26.11
2018-08-24T06:59:01.969Z,27.01
2018-08-24T07:00:01.906Z,27.39
2018-08-24T07:01:54.724Z,28.28
2018-08-24T07:02:54.666Z,28.54
2018-08-24T07:04:47.503Z,28.32
2018-08-24T07:05:47.477Z,27.83
2018-08-24T07:07:40.192Z,26.90
2018-08-24T07:08:40.162Z,26.86
2018-08-24T07:10:32.949Z,26.00
2018-08-24T07:11:32.883Z,25.82
2018-08-24T07:13:25.681Z,25.46
2018-08-24T07:14:25.680Z,25.38
2018-08-24T07:16:18.412Z,25.27
2018-08-24T07:17:18.347Z,25.31
2018-08-24T07:19:11.152Z,25.31
2018-08-24T07:20:11.089Z,25.41
2018-08-24T07:22:03.868Z,25.26
2018-08-24T07:23:03.810Z,25.76
2018-08-24T07:24:56.617Z,26.61
2018-08-24T07:25:56.553Z,27.13
2018-08-24T07:27:49.369Z,27.87
2018-08-24T07:28:49.287Z,28.20
2018-08-24T07:30:42.106Z,28.69
2018-08-24T07:31:42.039Z,29.02
2018-08-24T07:33:35.040Z,29.44
2018-08-24T07:34:34.757Z,29.51
2018-08-24T07:36:27.562Z,29.48
2018-08-24T07:37:27.518Z,30.06
2018-08-24T07:39:20.335Z,29.44
2018-08-24T07:40:20.263Z,29.23
2018-08-24T07:42:13.080Z,28.72
2018-08-24T07:43:13.018Z,28.94
2018-08-24T07:45:05.845Z,29.18
2018-08-24T07:46:05.766Z,28.89
2018-08-24T07:47:58.571Z,29.05
2018-08-24T07:48:58.515Z,29.17
2018-08-24T07:50:51.370Z,29.54
2018-08-24T07:51:51.294Z,29.58
2018-08-24T07:53:44.092Z,29.44
2018-08-24T07:54:44.073Z,28.82
2018-08-24T07:56:36.832Z,29.07
2018-08-24T07:57:36.778Z,28.91
2018-08-24T07:59:30.429Z,28.61
2018-08-24T08:00:30.361Z,28.51
2018-08-24T08:02:23.176Z,28.13
2018-08-24T08:03:23.120Z,27.90
2018-08-24T08:05:15.941Z,27.43
2018-08-24T08:06:15.924Z,27.20
2018-08-24T08:08:08.646Z,26.94
2018-08-24T08:09:08.592Z,26.79
2018-08-24T08:11:01.881Z,26.35
2018-08-24T08:12:01.815Z,26.36
2018-08-24T08:13:54.721Z,26.29
2018-08-24T08:14:54.693Z,26.13
2018-08-24T08:16:47.333Z,26.16
2018-08-24T08:17:47.287Z,26.09
2018-08-24T08:19:40.115Z,25.89
2018-08-24T08:20:39.999Z,25.60
2018-08-24T08:22:32.848Z,25.63
2018-08-24T08:23:32.740Z,25.53
2018-08-24T08:25:25.619Z,25.44
2018-08-24T08:26:25.571Z,25.29
2018-08-24T08:28:18.344Z,25.14
2018-08-24T08:29:18.283Z,25.07
2018-08-24T08:31:11.091Z,25.14
2018-08-24T08:32:11.019Z,25.20
2018-08-24T08:34:03.919Z,25.42
2018-08-24T08:35:03.808Z,25.39
2018-08-24T08:36:56.608Z,25.42
2018-08-24T08:37:56.538Z,25.44
2018-08-24T08:39:49.343Z,25.82
2018-08-24T08:40:49.270Z,26.28
2018-08-24T08:42:42.053Z,27.13
2018-08-24T08:43:41.994Z,27.50
2018-08-24T08:45:34.847Z,28.14
2018-08-24T08:46:34.761Z,28.38
2018-08-24T08:48:27.544Z,28.61
2018-08-24T08:49:27.503Z,28.40
2018-08-24T08:51:20.287Z,28.46
2018-08-24T08:52:20.207Z,28.42
2018-08-24T08:54:13.010Z,28.58
2018-08-24T08:55:12.973Z,28.61
2018-08-24T08:57:05.769Z,28.24
2018-08-24T08:58:05.687Z,28.32
2018-08-24T08:59:58.558Z,28.32
2018-08-24T09:00:58.475Z,28.67
2018-08-24T09:02:51.315Z,29.20
2018-08-24T09:03:51.251Z,29.10
2018-08-24T09:05:44.066Z,28.85
2018-08-24T09:06:43.983Z,28.88
2018-08-24T09:08:36.769Z,29.18
2018-08-24T09:09:36.717Z,29.21
2018-08-24T09:11:29.523Z,29.58
2018-08-24T09:12:29.467Z,29.64
2018-08-24T09:14:22.265Z,29.07
2018-08-24T09:15:22.217Z,29.30
2018-08-24T09:17:15.049Z,29.51
2018-08-24T09:18:14.940Z,29.33
2018-08-24T09:20:07.749Z,29.30
2018-08-24T09:21:07.674Z,29.76
2018-08-24T09:23:00.469Z,30.08
2018-08-24T09:24:00.425Z,30.38
2018-08-24T09:25:53.220Z,30.36
2018-08-24T09:26:53.144Z,30.21
2018-08-24T09:28:45.975Z,30.46
2018-08-24T09:29:45.897Z,30.25
2018-08-24T09:31:38.693Z,30.76
2018-08-24T09:32:38.726Z,31.04
2018-08-24T09:34:31.427Z,30.63
2018-08-24T09:35:31.348Z,30.66
2018-08-24T09:37:24.155Z,30.34
2018-08-24T09:38:24.082Z,30.16
2018-08-24T09:40:16.931Z,29.74
2018-08-24T09:41:16.866Z,29.03
2018-08-24T09:43:09.763Z,28.40
2018-08-24T09:44:09.603Z,28.14
2018-08-24T09:46:02.411Z,27.80
2018-08-24T09:47:02.337Z,27.58
2018-08-24T09:48:55.167Z,27.13
2018-08-24T09:49:55.062Z,27.15
2018-08-24T09:51:47.876Z,27.12
2018-08-24T09:52:47.795Z,26.91
2018-08-24T09:54:40.584Z,26.79
2018-08-24T09:55:40.529Z,26.72
2018-08-24T09:57:33.390Z,26.42
2018-08-24T09:58:33.265Z,26.29
2018-08-24T10:00:26.068Z,26.79
2018-08-24T10:01:26.000Z,26.93
2018-08-24T10:03:18.801Z,26.87
2018-08-24T10:04:18.759Z,27.18
2018-08-24T10:06:11.617Z,27.38
2018-08-24T10:07:11.469Z,27.66
2018-08-24T10:09:04.271Z,27.55
2018-08-24T10:10:04.196Z,27.68
2018-08-24T10:11:56.992Z,27.45
2018-08-24T10:12:56.929Z,27.48
2018-08-24T10:14:49.745Z,26.96
2018-08-24T10:15:49.661Z,26.83
2018-08-24T10:17:42.441Z,26.65
2018-08-24T10:18:42.375Z,26.56
2018-08-24T10:20:35.174Z,26.32
2018-08-24T10:21:35.123Z,26.28
2018-08-24T10:23:27.925Z,26.12
2018-08-24T10:24:27.858Z,26.00
2018-08-24T10:26:20.644Z,26.03
2018-08-24T10:27:20.580Z,25.94
2018-08-24T10:29:13.441Z,25.97
2018-08-24T10:30:13.311Z,26.12
2018-08-24T10:32:06.117Z,26.64
2018-08-24T10:33:06.043Z,26.65
2018-08-24T10:34:58.830Z,26.54
2018-08-24T10:35:58.771Z,26.53
2018-08-24T10:37:51.572Z,26.61
2018-08-24T10:38:51.507Z,26.42
2018-08-24T10:40:44.317Z,26.49
2018-08-24T10:41:44.236Z,26.49
2018-08-24T10:43:37.026Z,26.38
2018-08-24T10:44:36.957Z,26.46
2018-08-24T10:46:29.834Z,26.41
2018-08-24T10:47:29.701Z,26.31
2018-08-24T10:49:22.556Z,26.42
2018-08-24T10:50:22.462Z,26.41
2018-08-24T10:52:15.264Z,26.51
2018-08-24T10:53:15.194Z,26.50
2018-08-24T10:55:07.981Z,26.32
2018-08-24T10:56:08.002Z,26.28
2018-08-24T10:58:00.751Z,25.94
2018-08-24T10:59:00.671Z,25.72
2018-08-24T11:00:53.536Z,25.79
2018-08-24T11:01:53.484Z,25.81
2018-08-24T11:03:46.329Z,26.06
2018-08-24T11:04:46.222Z,25.83
2018-08-24T11:06:39.014Z,25.63
2018-08-24T11:07:39.023Z,25.60
2018-08-24T11:09:31.736Z,25.31
2018-08-24T11:10:31.666Z,24.97
2018-08-24T11:12:24.507Z,24.66
2018-08-24T11:13:24.434Z,24.48
2018-08-24T11:15:17.202Z,24.51
2018-08-24T11:16:17.150Z,24.36
2018-08-24T11:18:09.973Z,24.21
2018-08-24T11:19:09.881Z,24.21
2018-08-24T11:21:02.667Z,24.26
2018-08-24T11:22:02.605Z,24.31
2018-08-24T11:23:55.433Z,24.15
2018-08-24T11:24:55.343Z,24.15
2018-08-24T11:26:48.185Z,24.36
2018-08-24T11:27:48.062Z,24.63
2018-08-24T11:29:40.886Z,24.59
2018-08-24T11:30:40.823Z,24.64
2018-08-24T11:32:33.641Z,24.44
2018-08-24T11:33:33.545Z,24.30
2018-08-24T11:35:26.358Z,24.04
2018-08-24T11:36:26.309Z,23.99
2018-08-24T11:38:19.095Z,23.63
2018-08-24T11:39:19.027Z,23.47
2018-08-24T11:41:11.812Z,23.32
2018-08-24T11:42:11.899Z,23.39
2018-08-24T11:44:04.586Z,23.39
2018-08-24T11:45:04.497Z,23.53
2018-08-24T11:46:57.306Z,23.63
2018-08-24T11:47:57.293Z,23.57
2018-08-24T11:49:49.998Z,23.52
2018-08-24T11:50:49.942Z,23.44
2018-08-24T11:52:42.741Z,23.18
2018-08-24T11:53:42.666Z,23.22
2018-08-24T11:55:35.498Z,23.25
2018-08-24T11:56:35.450Z,23.35
2018-08-24T11:58:28.312Z,23.41
2018-08-24T11:59:28.186Z,23.45
2018-08-24T12:01:20.987Z,23.60
2018-08-24T12:02:20.945Z,23.68
2018-08-24T12:04:13.769Z,23.72
2018-08-24T12:05:13.691Z,23.99
2018-08-24T12:07:06.505Z,24.45
2018-08-24T12:08:06.538Z,24.67
2018-08-24T12:09:59.202Z,24.64
2018-08-24T12:10:59.143Z,24.66
2018-08-24T12:12:51.936Z,24.82
2018-08-24T12:13:51.899Z,24.94
2018-08-24T12:15:44.644Z,25.26
2018-08-24T12:16:44.589Z,25.30
2018-08-24T12:18:37.467Z,24.98
2018-08-24T12:19:37.384Z,25.08
2018-08-24T12:21:30.218Z,25.16
2018-08-24T12:22:30.135Z,25.05
2018-08-24T12:24:22.979Z,24.87
2018-08-24T12:25:22.856Z,24.80
2018-08-24T12:27:15.748Z,24.67
2018-08-24T12:28:15.604Z,24.68
2018-08-24T12:30:08.380Z,24.51
2018-08-24T12:31:08.330Z,24.08
2018-08-24T12:33:01.179Z,24.08
2018-08-24T12:34:01.080Z,24.18
2018-08-24T12:35:53.876Z,24.16
2018-08-24T12:36:53.809Z,24.26
2018-08-24T12:38:46.621Z,24.37
2018-08-24T12:39:46.523Z,24.37
2018-08-24T12:41:39.319Z,24.53
2018-08-24T12:42:39.258Z,24.61
2018-08-24T12:44:32.060Z,24.75
2018-08-24T12:45:31.986Z,24.92
2018-08-24T12:47:24.794Z,24.89
2018-08-24T12:48:24.707Z,24.89
2018-08-24T12:50:17.494Z,24.59
2018-08-24T12:51:17.433Z,24.55
2018-08-24T12:53:10.391Z,24.56
2018-08-24T12:54:10.332Z,24.55
2018-08-24T12:56:02.936Z,24.70
2018-08-24T12:57:02.877Z,24.67
2018-08-24T12:58:55.680Z,24.77
2018-08-24T12:59:55.634Z,24.82
2018-08-24T13:01:48.382Z,24.87
2018-08-24T13:02:48.334Z,24.86
2018-08-24T13:04:41.187Z,24.68
2018-08-24T13:05:41.120Z,24.71
2018-08-24T13:07:33.942Z,24.66
2018-08-24T13:08:33.911Z,24.71
2018-08-24T13:10:26.646Z,24.89
2018-08-24T13:11:26.578Z,24.84
2018-08-24T13:13:19.379Z,24.90
2018-08-24T13:14:19.300Z,24.75
2018-08-24T13:16:12.081Z,24.63
2018-08-24T13:17:12.021Z,24.77
2018-08-24T13:19:04.862Z,24.66
2018-08-24T13:20:04.789Z,24.67
2018-08-24T13:21:57.591Z,24.66
2018-08-24T13:22:57.522Z,24.70
2018-08-24T13:24:50.377Z,24.75
2018-08-24T13:25:50.305Z,24.66
2018-08-24T13:27:43.136Z,24.61
2018-08-24T13:28:43.037Z,24.61
2018-08-24T13:30:35.844Z,24.77
2018-08-24T13:31:35.769Z,24.83
2018-08-24T13:33:28.580Z,24.80
2018-08-24T13:34:28.500Z,24.66
2018-08-24T13:36:21.360Z,24.87
2018-08-24T13:37:21.286Z,24.92
2018-08-24T13:39:14.081Z,25.07
2018-08-24T13:40:14.046Z,25.17
2018-08-24T13:42:06.874Z,25.27
2018-08-24T13:43:06.803Z,25.27
2018-08-24T13:44:59.574Z,25.22
2018-08-24T13:45:59.492Z,25.22
2018-08-24T13:47:52.306Z,25.01
2018-08-24T13:48:52.228Z,25.04
2018-08-24T13:50:45.036Z,24.87
2018-08-24T13:51:44.965Z,24.87
2018-08-24T13:53:37.783Z,25.05
2018-08-24T13:54:37.682Z,25.17
2018-08-24T13:56:30.528Z,25.23
2018-08-24T13:57:30.456Z,25.14
2018-08-24T13:59:23.290Z,25.23
2018-08-24T14:00:23.192Z,25.26
2018-08-24T14:02:16.012Z,25.01
2018-08-24T14:03:15.892Z,25.17
2018-08-24T14:05:08.712Z,25.24
2018-08-24T14:06:08.711Z,25.22
2018-08-24T14:08:01.407Z,25.24
2018-08-24T14:09:01.353Z,25.02
2018-08-24T14:10:54.151Z,25.02
2018-08-24T14:11:54.071Z,24.99
2018-08-24T14:13:46.866Z,25.12
2018-08-24T14:14:46.787Z,25.07
2018-08-24T14:16:39.590Z,25.12
2018-08-24T14:17:39.581Z,25.14
2018-08-24T14:19:32.348Z,25.16
2018-08-24T14:20:32.283Z,25.29
2018-08-24T14:22:25.046Z,25.53
2018-08-24T14:23:25.044Z,25.74
2018-08-24T14:25:17.789Z,25.82
2018-08-24T14:26:17.715Z,25.82
2018-08-24T14:28:10.502Z,25.69
2018-08-24T14:29:10.437Z,25.78
2018-08-24T14:31:03.248Z,25.44
2018-08-24T14:32:03.170Z,25.29
2018-08-24T14:33:55.984Z,24.94
2018-08-24T14:34:55.903Z,24.86
2018-08-24T14:36:48.701Z,24.61
2018-08-24T14:37:48.632Z,24.66
2018-08-24T14:39:41.452Z,24.71
2018-08-24T14:40:41.388Z,24.84
2018-08-24T14:42:34.167Z,24.75
2018-08-24T14:43:34.116Z,24.70
2018-08-24T14:45:26.919Z,24.71
2018-08-24T14:46:26.842Z,24.71
2018-08-24T14:48:19.652Z,24.75
2018-08-24T14:49:19.556Z,24.80
2018-08-24T14:51:12.365Z,24.92
2018-08-24T14:52:12.283Z,24.74
2018-08-24T14:54:05.081Z,24.64
2018-08-24T14:55:05.009Z,24.51
2018-08-24T14:56:57.776Z,24.52
2018-08-24T14:57:57.711Z,24.49
2018-08-24T14:59:50.526Z,24.46
2018-08-24T15:00:50.428Z,24.56
2018-08-24T15:02:43.253Z,24.75
2018-08-24T15:03:43.183Z,24.74
2018-08-24T15:05:35.965Z,24.87
2018-08-24T15:06:35.885Z,24.94
2018-08-24T15:08:28.718Z,24.92
2018-08-24T15:09:28.653Z,24.87
2018-08-24T15:11:21.459Z,24.92
2018-08-24T15:12:21.380Z,24.80
2018-08-24T15:14:14.257Z,24.68
2018-08-24T15:15:14.127Z,24.75
2018-08-24T15:17:06.976Z,24.68
2018-08-24T15:18:06.850Z,24.64
2018-08-24T15:19:59.651Z,24.39
2018-08-24T15:20:59.568Z,24.29
2018-08-24T15:22:52.439Z,24.18
2018-08-24T15:23:52.321Z,24.16
2018-08-24T15:25:45.132Z,24.12
2018-08-24T15:26:45.040Z,24.14
2018-08-24T15:28:37.875Z,24.04
2018-08-24T15:29:37.879Z,24.00
2018-08-24T15:31:30.670Z,24.04
2018-08-24T15:32:30.585Z,23.94
2018-08-24T15:34:23.388Z,23.86
2018-08-24T15:35:23.336Z,23.89
2018-08-24T15:37:16.292Z,23.84
2018-08-24T15:38:16.068Z,23.82
2018-08-24T15:40:08.857Z,23.78
2018-08-24T15:41:08.785Z,23.69
2018-08-24T15:43:02.053Z,23.67
2018-08-24T15:44:01.991Z,23.64
2018-08-24T15:45:54.791Z,23.69
2018-08-24T15:46:54.720Z,23.67
2018-08-24T15:48:47.564Z,23.64
2018-08-24T15:49:47.456Z,23.62
2018-08-24T15:51:40.341Z,23.67
2018-08-24T15:52:40.199Z,23.63
2018-08-24T15:54:33.023Z,23.79
2018-08-24T15:55:32.923Z,23.86
2018-08-24T15:57:25.728Z,23.89
2018-08-24T15:58:25.650Z,23.92
2018-08-24T16:00:18.953Z,23.92
2018-08-24T16:01:18.362Z,23.97
2018-08-24T16:03:11.185Z,24.04
2018-08-24T16:04:11.105Z,23.99
2018-08-24T16:06:03.897Z,23.96
2018-08-24T16:07:03.821Z,23.84
2018-08-24T16:08:56.667Z,23.92
2018-08-24T16:09:56.606Z,23.86
2018-08-24T16:11:49.418Z,23.81
2018-08-24T16:12:49.390Z,23.81
2018-08-24T16:14:42.144Z,23.84
2018-08-24T16:15:42.075Z,23.81
2018-08-24T16:17:34.850Z,23.87
2018-08-24T16:18:34.800Z,23.84
2018-08-24T16:20:27.627Z,23.67
2018-08-24T16:21:27.542Z,23.59
2018-08-24T16:23:20.441Z,23.49
2018-08-24T16:24:20.337Z,23.42
2018-08-24T16:26:13.138Z,23.15
2018-08-24T16:27:13.044Z,23.18
2018-08-24T16:29:05.826Z,23.01
2018-08-24T16:30:05.816Z,22.96
2018-08-24T16:35:47.863Z,22.67
2018-08-24T16:36:47.796Z,22.63
2018-08-24T16:38:40.564Z,22.63
2018-08-24T16:39:40.509Z,22.59
2018-08-24T16:41:33.313Z,22.57
2018-08-24T16:42:33.221Z,22.59
2018-08-24T16:44:25.992Z,22.46
2018-08-24T16:45:25.933Z,22.54
2018-08-24T16:47:18.766Z,22.41
2018-08-24T16:48:18.657Z,22.41
2018-08-24T16:50:11.520Z,22.41
2018-08-24T16:51:11.441Z,22.39
2018-08-24T16:53:04.270Z,22.48
2018-08-24T16:54:04.167Z,22.41
2018-08-24T16:55:56.940Z,22.52
2018-08-24T16:56:56.864Z,22.51
2018-08-24T16:58:49.639Z,22.41
2018-08-24T16:59:49.573Z,22.39
2018-08-24T17:01:42.380Z,22.54
2018-08-24T17:02:42.302Z,22.56
2018-08-24T17:04:35.162Z,22.44
2018-08-24T17:05:35.107Z,22.52
2018-08-24T17:07:28.323Z,22.54
2018-08-24T17:08:27.888Z,22.48
2018-08-24T17:10:20.698Z,22.57
2018-08-24T17:11:20.617Z,22.48
2018-08-24T17:13:13.382Z,22.51
2018-08-24T17:14:13.324Z,22.54
2018-08-24T17:16:06.138Z,22.57
2018-08-24T17:17:06.044Z,22.49
2018-08-24T17:18:58.840Z,22.49
2018-08-24T17:19:58.781Z,22.49
2018-08-24T17:21:51.579Z,22.52
2018-08-24T17:22:51.502Z,22.49
2018-08-24T17:24:44.272Z,22.42
2018-08-24T17:25:44.205Z,22.44
2018-08-24T17:27:36.996Z,22.33
2018-08-24T17:28:36.940Z,22.38
2018-08-24T17:30:29.733Z,22.33
2018-08-24T17:31:29.657Z,22.23
2018-08-24T17:33:22.473Z,22.24
2018-08-24T17:34:22.406Z,22.14
2018-08-24T17:36:15.200Z,22.12
2018-08-24T17:37:15.122Z,22.14
2018-08-24T17:39:07.926Z,22.09
2018-08-24T17:40:07.838Z,22.11
2018-08-24T17:42:00.684Z,22.11
2018-08-24T17:43:00.607Z,21.99
2018-08-24T17:44:53.405Z,21.93
2018-08-24T17:45:53.344Z,21.91
2018-08-24T17:47:46.142Z,21.81
2018-08-24T17:48:46.062Z,21.86
2018-08-24T17:50:39.035Z,21.85
2018-08-24T17:51:38.977Z,21.83
2018-08-24T17:53:31.789Z,21.74
2018-08-24T17:54:31.717Z,21.73
2018-08-24T17:56:24.521Z,21.83
2018-08-24T17:57:24.549Z,21.83
2018-08-24T17:59:17.213Z,21.71
2018-08-24T18:00:17.147Z,21.70
2018-08-24T18:02:09.930Z,21.74
2018-08-24T18:03:09.901Z,21.73
2018-08-24T18:05:02.721Z,21.67
2018-08-24T18:06:02.643Z,21.53
2018-08-24T18:07:55.362Z,21.51
2018-08-24T18:08:55.291Z,21.59
2018-08-24T18:10:48.124Z,21.45
2018-08-24T18:11:48.057Z,21.45
2018-08-24T18:13:40.901Z,21.38
2018-08-24T18:14:40.854Z,21.33
2018-08-24T18:16:33.628Z,21.38
2018-08-24T18:17:33.547Z,21.43
2018-08-24T18:19:26.341Z,21.37
2018-08-24T18:20:26.267Z,21.48
2018-08-24T18:22:19.051Z,21.33
2018-08-24T18:23:19.050Z,21.34
2018-08-24T18:25:11.751Z,21.36
2018-08-24T18:26:11.688Z,21.21
2018-08-24T18:28:04.476Z,21.27
2018-08-24T18:29:04.404Z,21.28
2018-08-24T18:30:57.360Z,21.24
2018-08-24T18:31:57.256Z,21.12
2018-08-24T18:33:50.194Z,21.12
2018-08-24T18:34:50.137Z,21.11
2018-08-24T18:36:42.914Z,21.08